DAOB/TID METAR and TAF weather

Enter ICAO airport designator
Station Type Date Time Source
DAOB METAR 2019/04/21 22:00 UTC NOAA

DAOB 212200Z 28011KT 6000 -RA SCT010 BKN020 FEW023CB 08/08 Q1002


Station Type Date Time Source
DAOB Decoded METAR 2019/04/21 22:00 UTC NOAA

Tiaret, Algeria (DAOB) 35-15N 001-26E 1127M
Apr 21, 2019 - 06:00 PM EDT / 2019.04.21 2200 UTC
Wind: from the W (280 degrees) at 13 MPH (11 KT):0
Visibility: 3 mile(s):0
Sky conditions: mostly cloudy
Weather: light rain; Cumulonimbus clouds observed
Temperature: 46 F (8 C)
Dew Point: 46 F (8 C)
Relative Humidity: 100%
Pressure (altimeter): 29.59 in. Hg (1002 hPa)
ob: DAOB 212200Z 28011KT 6000 -RA SCT010 BKN020 FEW023CB 08/08 Q1002
cycle: 22

Station Type Date Time Source
DAOB TAF 2019/04/21 18:33 UTC NOAA

TAF TAF DAOB 211700Z 2118/2218 30012KT 6000 BKN020
TEMPO 2118/2203 0800 FG BKN015 PROB40
TEMPO 2118/2124 4000 -TSRA FEW023CB PROB30
TEMPO 2200/2208 32015G25KT 3000 -RA BKN015 FEW020CB

Example: see airport list